»·PEaware :: TPX286 KBUR-KLAS

TPX286 :: KBUR-KLAS

FLIGHT INFORMATION

Flight Status: Arrived
Operator: ATP Experience
More flights by this operator :: More flights under this callsign
Pilot: Dave P. (45)
Aircraft: BOEING 737-800
(B738)
More flights by this aircraft type
Origin: KBUR Bob Hope-Burbank
United States
Destination: KLAS McCarran Intl
United States
More flights between these airports :: More routes between these airports
Route: +SLAPP1 MISEN KEPEC6
File this flight plan on PilotEdge
Remarks: PBN / A1B1C1D1S1S2 DOF / 180623 REG / N738PM OPR / TPX PER / D RMK / TCAS SIMBRIEF
Altitude:
(Current/Filed)
27,000ft
Speed:
(Current/Filed)
457kts
Departed: 23-Jun-18 02:52 PM
Arrived: 23-Jun-18 03:36 PM
Distance/Time
Traveled:
194nm/0:44
Distance/Time
To Go:
Arrived

Flight Plot

Page will automatically refresh every two minutes.

Flight plan parsing failed; only flown route is shown


Map Options




Map Legend


Flown Route
Filed Route
Departure Airport
Arrival Airport
Navaid (VOR, NDB)
Fix

Horizontal Profiles

Position Reports

Time Latitude Longitude Heading Altitude Ground
Speed
23-Jun-18 14:12 34.196654 -118.354920 164 729ft 0kts
23-Jun-18 14:13 34.196654 -118.354920 164 729ft 0kts
23-Jun-18 14:14 34.196654 -118.354920 164 729ft 0kts
23-Jun-18 14:15 34.196654 -118.354920 164 729ft 0kts
23-Jun-18 14:16 34.196654 -118.354920 164 729ft 0kts
23-Jun-18 14:17 34.196654 -118.354920 164 729ft 0kts
23-Jun-18 14:18 34.196654 -118.354920 164 729ft 0kts
23-Jun-18 14:19 34.196654 -118.354920 164 729ft 0kts
23-Jun-18 14:20 34.196654 -118.354920 164 729ft 0kts
23-Jun-18 14:21 34.196654 -118.354920 164 729ft 0kts
23-Jun-18 14:22 34.196654 -118.354920 164 729ft 0kts
23-Jun-18 14:23 34.196654 -118.354920 164 729ft 0kts
23-Jun-18 14:24 34.196654 -118.354920 164 729ft 0kts
23-Jun-18 14:25 34.196654 -118.354920 164 729ft 0kts
23-Jun-18 14:26 34.196654 -118.354920 164 729ft 0kts
23-Jun-18 14:27 34.196654 -118.354920 164 729ft 0kts
23-Jun-18 14:28 34.196654 -118.354920 164 729ft 0kts
23-Jun-18 14:29 34.196654 -118.354920 164 729ft 0kts
23-Jun-18 14:30 34.196654 -118.354920 164 729ft 0kts
23-Jun-18 14:31 34.196654 -118.354920 164 729ft 0kts
23-Jun-18 14:32 34.196654 -118.354920 164 729ft 0kts
23-Jun-18 14:33 34.196654 -118.354920 164 729ft 0kts
23-Jun-18 14:34 34.196654 -118.354920 164 729ft 0kts
23-Jun-18 14:35 34.196654 -118.354920 164 729ft 0kts
23-Jun-18 14:36 34.196654 -118.354920 164 729ft 0kts
23-Jun-18 14:37 34.196654 -118.354920 164 729ft 0kts
23-Jun-18 14:38 34.196654 -118.354920 164 729ft 0kts
23-Jun-18 14:39 34.196654 -118.354920 164 729ft 0kts
23-Jun-18 14:40 34.196900 -118.354999 164 729ft 2kts
23-Jun-18 14:41 34.197019 -118.355036 164 729ft 0kts
23-Jun-18 14:42 34.197019 -118.355036 164 729ft 0kts
23-Jun-18 14:43 34.197017 -118.355036 164 729ft 0kts
23-Jun-18 14:44 34.197016 -118.355035 164 729ft 0kts
23-Jun-18 14:45 34.197014 -118.355035 164 729ft 0kts
23-Jun-18 14:46 34.199289 -118.355425 348 729ft 22kts
23-Jun-18 14:47 34.204164 -118.356792 346 729ft 22kts
23-Jun-18 14:48 34.209443 -118.358282 346 729ft 16kts
23-Jun-18 14:49 34.212260 -118.359575 270 729ft 0kts
23-Jun-18 14:50 34.212261 -118.359577 270 729ft 0kts
23-Jun-18 14:51 34.212094 -118.360329 204 729ft 6kts
23-Jun-18 14:52 34.190361 -118.354331 166 1517ft 149kts
23-Jun-18 14:53 34.149420 -118.384148 222 3690ft 233kts
23-Jun-18 14:54 34.117797 -118.457791 286 5890ft 280kts
23-Jun-18 14:55 34.183560 -118.491195 20 9115ft 297kts
23-Jun-18 14:56 34.261304 -118.444062 26 11396ft 343kts
23-Jun-18 14:57 34.351142 -118.388824 25 13840ft 372kts
23-Jun-18 14:58 34.447591 -118.337953 23 16684ft 385kts
23-Jun-18 14:59 34.536395 -118.260264 38 18896ft 403kts
23-Jun-18 15:00 34.622695 -118.172868 37 19497ft 409kts
23-Jun-18 15:01 34.678493 -118.052312 75 21768ft 429kts
23-Jun-18 15:02 34.696191 -117.906617 85 23705ft 445kts
23-Jun-18 15:03 34.704744 -117.754166 85 25507ft 456kts
23-Jun-18 15:04 34.710846 -117.598674 86 26847ft 465kts
23-Jun-18 15:05 34.730040 -117.445594 71 26870ft 457kts
23-Jun-18 15:06 34.769633 -117.298479 70 26868ft 457kts
23-Jun-18 15:07 34.808587 -117.151244 70 26874ft 458kts
23-Jun-18 15:08 34.847826 -117.003972 70 26842ft 458kts
23-Jun-18 15:09 34.886555 -116.855676 70 26788ft 458kts
23-Jun-18 15:10 34.930731 -116.710774 58 26774ft 455kts
23-Jun-18 15:11 35.000126 -116.585527 52 26771ft 444kts
23-Jun-18 15:12 35.068385 -116.464436 53 24900ft 425kts
23-Jun-18 15:13 35.140594 -116.355326 42 23824ft 398kts
23-Jun-18 15:14 35.212876 -116.265130 42 23798ft 344kts
23-Jun-18 15:15 35.281669 -116.178687 42 20799ft 385kts
23-Jun-18 15:16 35.357519 -116.083184 42 18895ft 391kts
23-Jun-18 15:17 35.433389 -115.987663 43 17454ft 386kts
23-Jun-18 15:18 35.507647 -115.893985 44 16028ft 380kts
23-Jun-18 15:19 35.580090 -115.801844 45 14630ft 367kts
23-Jun-18 15:20 35.648409 -115.714634 45 13512ft 343kts
23-Jun-18 15:21 35.712488 -115.632808 46 12988ft 319kts
23-Jun-18 15:22 35.785476 -115.573925 7 12998ft 324kts
23-Jun-18 15:23 35.875030 -115.568665 0 12991ft 322kts
23-Jun-18 15:24 35.963491 -115.556568 27 12980ft 325kts
23-Jun-18 15:25 36.003094 -115.465411 72 12968ft 293kts
23-Jun-18 15:26 36.028829 -115.375135 82 11891ft 288kts
23-Jun-18 15:27 36.024253 -115.276961 97 10688ft 285kts
23-Jun-18 15:28 36.017069 -115.180405 95 9237ft 279kts
23-Jun-18 15:29 36.012346 -115.091174 92 8552ft 236kts
23-Jun-18 15:30 36.011560 -115.012738 92 7363ft 224kts
23-Jun-18 15:31 36.021636 -114.955658 36 6179ft 215kts
23-Jun-18 15:32 36.076805 -114.955470 306 4360ft 198kts
23-Jun-18 15:33 36.074630 -115.016097 262 3902ft 187kts
23-Jun-18 15:34 36.073692 -115.084014 266 2854ft 150kts
23-Jun-18 15:35 36.073695 -115.134423 264 2189ft 131kts
23-Jun-18 15:36 36.074775 -115.145911 294 2189ft 10kts
23-Jun-18 15:37 36.077975 -115.146942 319 2189ft 12kts
23-Jun-18 15:38 36.078246 -115.142852 92 2189ft 17kts
23-Jun-18 15:39 36.079053 -115.139383 48 2189ft 10kts
23-Jun-18 15:40 36.080550 -115.138727 313 2189ft 0kts
23-Jun-18 15:41 36.080568 -115.138751 313 2189ft 0kts
23-Jun-18 15:42 36.080568 -115.138751 313 2189ft 0kts
23-Jun-18 15:43 36.080568 -115.138751 313 2189ft 0kts
23-Jun-18 15:44 36.080568 -115.138751 313 2189ft 0kts
23-Jun-18 15:45 36.080568 -115.138751 313 2189ft 0kts

Navigation Log

Ident Type
Flight plan parsing failed, navigation log unavailable